Date,TemperatureHighF,TemperatureAvgF,TemperatureLowF,DewpointHighF,DewpointAvgF,DewpointLowF,HumidityHigh,HumidityAvg,HumidityLow,PressureMaxIn,PressureMinIn,WindSpeedMaxMPH,WindSpeedAvgMPH,GustSpeedMaxMPH,PrecipitationSumIn
2013-1-1,44,39,36,43,36,31,98,92,75,30.19,30.05,14,4,19,0.61
2013-1-2,39,36,35,34,32,31,89,86,81,30.27,30.20,8,2,13,0.00
2013-1-3,44,37,33,32,28,20,89,71,37,30.45,30.25,7,2,9,0.00
2013-1-4,45,35,29,26,22,21,74,61,47,30.53,30.44,6,2,12,0.00
2013-1-5,46,37,28,34,24,21,86,61,38,30.51,30.34,12,3,20,0.03
2013-1-6,46,40,37,38,35,28,95,84,66,30.39,30.22,10,5,18,0.01
2013-1-7,50,40,30,30,28,24,80,64,45,30.51,30.39,10,3,13,0.00
2013-1-8,54,43,33,35,31,28,88,64,45,30.50,30.38,9,3,13,0.00
2013-1-9,48,45,40,47,39,31,96,82,54,30.55,30.40,9,4,14,0.44
2013-1-10,62,55,48,53,50,47,95,84,73,30.54,30.22,9,4,11,0.00
2013-1-11,68,62,56,62,57,51,96,83,69,30.21,30.09,15,6,25,0.01
2013-1-12,71,66,62,64,61,57,97,86,73,30.17,30.03,12,5,20,0.03
2013-1-13,69,65,60,61,58,55,97,78,66,30.07,29.98,18,7,29,0.91
2013-1-14,60,42,35,59,41,34,98,96,93,30.37,30.07,17,5,22,1.39
2013-1-15,42,39,37,42,39,36,98,98,97,30.29,30.07,14,4,17,2.72
2013-1-16,46,41,39,46,41,38,99,98,95,30.16,30.00,11,2,17,0.56
2013-1-17,41,36,31,40,34,30,98,94,82,30.44,30.02,12,4,22,1.01
2013-1-18,44,35,28,37,31,27,97,87,64,30.64,30.44,8,2,11,0.35
2013-1-19,50,37,25,38,29,24,97,78,42,30.52,30.27,16,4,28,0.09
2013-1-20,56,46,41,36,29,19,66,53,37,30.29,30.19,19,6,25,0.00
2013-1-21,44,38,29,25,16,10,74,43,28,30.30,30.16,22,6,28,0.00
2013-1-22,34,27,20,12,1,-5,51,35,22,30.46,30.29,8,2,17,0.00
2013-1-23,44,34,25,27,12,-1,59,39,31,30.48,30.22,24,6,26,0.00
2013-1-24,42,33,26,32,13,1,70,45,26,30.51,30.21,19,5,31,0.00
2013-1-25,33,29,24,32,23,5,97,81,40,30.46,30.20,8,4,12,0.19
2013-1-26,46,35,29,35,31,27,97,86,62,30.47,30.29,7,1,10,0.22
2013-1-27,46,37,28,36,30,25,91,76,59,30.55,30.42,6,2,9,0.00
2013-1-28,56,48,41,51,42,36,88,81,66,30.44,30.29,19,6,19,0.00
2013-1-29,67,57,47,56,51,46,94,81,64,30.30,29.92,10,3,14,0.00
2013-1-30,69,57,40,60,52,35,98,86,71,29.91,29.54,28,10,44,2.44
2013-1-31,41,36,31,33,24,20,85,61,45,30.12,29.72,26,11,42,0.00
2013-2-1,40,28,19,32,13,5,88,56,39,30.50,30.07,28,4,32,0.00
2013-2-2,35,28,22,30,22,12,92,78,58,30.48,30.18,12,4,18,0.00
2013-2-3,42,35,31,35,28,21,96,76,51,30.26,30.09,18,6,28,0.02
2013-2-4,47,37,26,27,24,21,86,61,38,30.25,30.05,10,3,18,0.00
2013-2-5,57,48,42,40,35,27,77,62,48,30.09,30.01,15,7,20,0.00
2013-2-6,61,51,41,42,31,25,82,49,26,30.27,30.09,11,3,13,0.00
2013-2-7,56,49,43,43,33,26,86,57,39,30.20,30.00,8,2,12,0.00
2013-2-8,54,45,36,47,39,29,97,80,54,30.35,29.95,15,5,21,0.08
2013-2-9,53,42,30,28,24,20,81,53,29,30.44,30.31,11,4,15,0.00
2013-2-10,58,47,40,44,30,19,95,56,31,30.32,30.05,17,4,17,0.17
2013-2-11,56,51,45,52,42,27,98,75,42,30.19,30.04,18,7,26,0.04
2013-2-12,55,47,41,35,28,24,70,48,34,30.24,29.93,10,3,16,0.05
2013-2-13,46,41,37,44,38,33,97,88,67,30.06,29.75,24,4,28,0.32
2013-2-14,52,43,36,35,33,31,88,68,50,30.16,30.06,12,5,18,0.00
2013-2-15,52,44,36,39,34,29,86,70,57,30.18,30.08,14,5,22,0.01
2013-2-16,38,31,26,29,20,9,80,64,35,30.22,30.09,13,4,22,0.00
2013-2-17,42,32,22,15,10,8,62,42,25,30.37,30.22,12,4,18,0.00
2013-2-18,59,45,28,27,21,12,68,40,29,30.40,30.06,19,6,35,0.00
2013-2-19,51,43,36,40,28,10,95,60,21,30.25,29.99,31,10,38,0.18
2013-2-20,42,35,28,18,13,8,64,43,27,30.33,30.24,11,3,14,0.00
2013-2-21,51,38,27,36,18,13,92,48,26,30.35,30.09,12,4,18,0.52
2013-2-22,54,46,38,47,43,36,97,87,73,30.16,30.07,13,3,19,0.04
2013-2-23,57,48,45,48,45,38,97,89,72,30.10,29.90,9,2,13,0.07
2013-2-24,56,45,36,38,25,21,77,49,28,30.15,29.99,9,3,14,0.00
2013-2-25,56,46,37,35,26,21,57,47,36,30.13,29.87,10,4,16,0.00
2013-2-26,60,48,41,50,41,34,94,78,57,29.86,29.50,28,9,41,0.43
2013-2-27,45,40,38,37,34,31,84,77,65,29.94,29.75,18,8,27,0.01
2013-2-28,38,36,34,32,28,23,90,72,58,30.09,29.90,17,7,23,0.00
2013-3-1,40,36,33,35,31,29,92,83,67,30.08,30.03,9,2,11,0.02
2013-3-2,38,33,29,34,28,19,96,82,64,30.16,30.02,10,3,20,0.04
2013-3-3,34,30,24,24,18,15,81,63,50,30.21,30.15,9,2,17,0.00
2013-3-4,51,39,25,26,20,15,85,50,27,30.30,30.09,7,2,12,0.00
2013-3-5,48,40,34,46,34,20,98,80,39,30.12,29.70,39,8,45,1.71
2013-3-6,34,31,28,31,28,24,95,88,73,30.37,29.93,15,4,20,0.00
2013-3-7,41,34,32,31,28,26,93,81,69,30.46,30.33,7,1,10,0.00
2013-3-8,52,40,29,28,26,24,82,60,39,30.52,30.39,11,4,20,0.00
2013-3-9,65,49,36,33,29,26,68,48,25,30.40,30.24,11,4,16,0.00
2013-3-10,71,60,50,38,33,27,55,38,23,30.24,30.03,21,5,31,0.00
2013-3-11,64,57,46,53,46,34,96,69,36,30.03,29.78,26,11,35,0.68
2013-3-12,54,45,38,43,33,28,93,66,42,30.18,29.93,11,3,13,0.01
2013-3-13,43,39,32,29,23,17,73,54,40,30.41,30.15,18,6,28,0.00
2013-3-14,46,37,26,25,18,15,69,48,31,30.50,30.34,10,3,16,0.00
2013-3-15,67,51,36,43,35,26,83,56,37,30.36,29.97,15,6,24,0.00
2013-3-16,75,66,58,49,45,41,55,48,37,29.96,29.81,26,10,30,0.00
2013-3-17,73,64,56,50,47,44,75,56,40,30.00,29.87,22,5,29,0.00
2013-3-18,63,55,50,54,50,45,98,83,55,29.94,29.81,18,6,31,1.05
2013-3-19,60,49,41,52,28,8,97,52,15,30.21,29.89,15,3,22,0.01
2013-3-20,57,44,34,34,15,8,85,34,19,30.21,29.96,20,5,30,0.01
2013-3-21,42,32,23,16,11,9,61,43,27,30.12,30.04,14,3,16,0.00
2013-3-22,46,36,26,25,16,11,58,46,29,30.18,30.09,6,2,10,0.00
2013-3-23,55,44,38,42,34,25,88,69,50,30.13,29.85,10,3,15,0.01
2013-3-24,53,48,41,51,44,32,97,89,66,29.87,29.43,28,5,43,0.94
2013-3-25,41,34,30,34,29,24,95,83,58,30.12,29.66,24,13,37,0.00
2013-3-26,39,34,30,32,28,25,94,80,59,30.39,30.12,10,4,16,0.01
2013-3-27,50,40,33,29,25,21,83,59,35,30.45,30.36,7,2,12,0.00
2013-3-28,57,44,34,27,21,10,66,43,16,30.45,30.33,13,3,14,0.00
2013-3-29,47,42,37,40,31,19,96,67,35,30.44,30.33,8,2,12,0.19
2013-3-30,62,49,41,49,43,39,97,80,53,30.33,30.08,7,2,13,0.22
2013-3-31,60,54,50,54,52,49,98,93,78,30.08,29.92,15,4,21,0.52
2013-4-1,63,52,41,52,43,31,98,74,37,30.15,29.96,13,3,20,0.01
2013-4-2,58,47,37,32,21,15,56,38,22,30.31,30.15,9,3,13,0.00
2013-4-3,57,47,38,22,18,16,42,32,24,30.37,30.27,10,4,24,0.00
2013-4-4,50,43,40,41,30,17,95,67,28,30.27,30.07,12,4,18,0.77
2013-4-5,65,52,40,43,37,31,96,62,30,30.18,30.06,8,2,12,0.00
2013-4-6,70,60,44,39,36,31,75,44,25,30.26,30.12,10,4,15,0.00
2013-4-7,72,65,56,45,40,34,52,41,33,30.21,30.09,20,8,28,0.00
2013-4-8,76,68,57,53,48,43,61,50,39,30.15,30.05,21,7,30,0.00
2013-4-9,81,71,61,56,53,50,69,53,40,30.22,30.06,18,6,25,0.00
2013-4-10,84,74,63,57,55,53,71,53,37,30.15,29.91,14,6,22,0.00
2013-4-11,73,23,68,56,-48,-100,64,20,55,29.93,29.67,8,-664,17,0.00
2013-4-12,-200,0,200,-100,-100,-100,0,0,100,30.00,29.60,0,-999,0,0.00
2013-4-13,-200,0,200,-100,-100,-100,0,0,100,30.12,30.00,0,-999,0,0.00
2013-4-14,-200,0,200,-100,-100,-100,0,0,100,30.11,30.00,0,-999,0,0.00
2013-4-15,-200,0,200,-100,-100,-100,0,0,100,30.15,29.98,0,-999,0,0.00
2013-4-16,82,57,59,63,25,-100,85,49,50,30.29,30.15,11,-216,20,0.00
2013-4-17,73,67,62,62,61,58,93,81,69,30.28,30.10,17,5,30,0.03
2013-4-18,81,71,60,62,57,51,96,66,35,30.10,29.86,21,6,33,0.00
2013-4-19,74,58,46,62,48,32,96,72,53,30.13,29.70,26,11,45,1.28
2013-4-20,63,50,38,36,29,24,75,47,24,30.37,30.14,11,3,15,0.00
2013-4-21,68,55,44,36,31,27,52,41,27,30.47,30.33,9,3,15,0.00
2013-4-22,69,60,49,43,38,34,64,46,32,30.40,30.21,10,3,14,0.00
2013-4-23,75,62,49,48,42,34,65,48,36,30.28,30.08,11,3,15,0.00
2013-4-24,71,60,46,60,50,40,93,73,56,30.29,30.03,27,7,35,0.14
2013-4-25,67,54,41,40,35,29,87,54,27,30.43,30.29,7,2,11,0.00
2013-4-26,70,58,47,45,35,29,69,45,29,30.48,30.36,9,2,17,0.00
2013-4-27,56,53,51,54,50,43,97,89,61,30.43,30.18,9,2,12,0.85
2013-4-28,58,55,52,57,54,51,98,97,92,30.20,30.01,24,4,26,1.72
2013-4-29,74,62,55,58,55,53,98,80,50,30.11,30.00,6,2,11,0.00
2013-4-30,82,69,55,58,54,50,94,62,34,30.13,30.02,8,2,10,0.00
2013-5-1,76,69,62,57,54,50,77,61,48,30.24,30.12,15,4,20,0.00
2013-5-2,79,67,59,58,53,50,74,62,48,30.25,30.14,15,3,17,0.00
2013-5-3,75,65,57,55,51,46,82,62,41,30.18,30.02,16,6,29,0.00
2013-5-4,62,57,53,53,48,36,96,74,46,30.03,29.95,18,6,28,0.80
2013-5-5,58,54,51,56,52,49,97,94,88,29.95,29.84,15,4,22,1.29
2013-5-6,60,53,47,52,48,45,98,83,61,30.00,29.84,11,3,17,0.25
2013-5-7,71,59,48,52,49,47,96,72,47,30.03,29.96,5,1,10,0.00
2013-5-8,74,62,56,61,56,52,97,82,57,30.13,30.00,11,3,16,0.21
2013-5-9,78,68,57,63,58,55,97,72,47,30.17,30.07,9,3,13,0.02
2013-5-10,73,68,60,61,57,55,90,71,57,30.12,29.98,14,5,25,0.00
2013-5-11,74,65,56,65,57,48,95,76,53,30.05,29.91,16,5,27,0.04
2013-5-12,65,57,50,50,37,27,84,52,26,30.21,30.04,8,2,16,0.00
2013-5-13,67,56,46,37,32,29,59,42,25,30.31,30.20,10,2,16,0.00
2013-5-14,76,64,46,55,44,32,71,51,35,30.30,30.09,19,5,25,0.00
2013-5-15,85,73,63,58,55,52,73,56,37,30.19,30.02,14,8,21,0.00
2013-5-16,81,72,64,60,56,49,76,56,43,30.11,30.00,16,5,17,0.00
2013-5-17,82,72,62,65,61,59,92,72,50,30.14,30.04,7,2,12,0.11
2013-5-18,73,67,64,68,65,62,97,92,78,30.11,30.05,9,3,13,0.32
2013-5-19,78,68,64,70,66,63,98,93,74,30.11,30.04,16,4,22,0.14
2013-5-20,84,72,62,68,65,61,98,80,55,30.18,30.03,10,2,14,0.00
2013-5-21,89,75,66,70,66,60,94,75,49,30.08,29.94,23,4,24,0.00
2013-5-22,84,71,63,68,63,60,94,77,52,30.00,29.87,14,4,38,0.02
2013-5-23,80,70,64,64,60,53,96,72,46,30.05,29.92,16,4,28,0.03
2013-5-24,70,62,55,56,47,38,92,61,35,30.34,30.05,10,4,18,0.01
2013-5-25,78,64,50,46,41,35,73,47,25,30.41,30.24,7,2,14,0.00
2013-5-26,79,67,55,52,47,39,73,50,37,30.35,30.23,7,2,13,0.01
2013-5-27,83,72,59,59,55,52,86,58,40,30.28,30.13,13,4,20,0.00
2013-5-28,85,76,67,63,59,57,75,57,41,30.22,30.10,16,5,21,0.00
2013-5-29,87,78,67,65,61,57,76,57,42,30.25,30.12,9,4,18,0.00
2013-5-30,87,77,67,63,60,58,76,56,38,30.26,30.12,9,3,13,0.00
2013-5-31,86,78,68,64,61,58,72,57,39,30.20,30.08,14,5,20,0.00
2013-6-1,86,78,69,68,64,60,94,64,43,30.10,29.97,20,6,28,0.09
2013-6-2,78,69,66,70,67,63,98,92,75,30.00,29.92,12,5,22,1.34
2013-6-3,82,71,63,68,63,58,99,77,48,30.05,29.95,7,2,12,0.00
2013-6-4,86,73,62,64,59,57,90,64,39,30.10,30.02,6,3,12,0.00
2013-6-5,87,73,66,68,64,59,97,76,52,30.08,29.95,8,3,21,0.45
2013-6-6,81,72,64,69,66,63,98,82,60,29.97,29.80,11,3,14,0.00
2013-6-7,83,74,68,70,66,59,95,78,45,29.90,29.75,8,2,13,0.04
2013-6-8,82,72,65,67,64,62,97,79,52,30.12,29.89,9,3,13,0.01
2013-6-9,86,72,66,70,66,63,98,84,53,30.15,30.02,21,3,45,0.57
2013-6-10,80,72,67,68,66,60,98,83,51,30.02,29.91,21,6,28,0.49
2013-6-11,88,75,65,70,66,64,98,75,48,30.09,30.00,7,3,13,0.00
2013-6-12,91,81,73,74,71,66,85,71,54,30.08,29.94,14,6,18,0.00
2013-6-13,82,77,70,75,71,63,94,81,69,29.95,29.76,22,6,26,0.43
2013-6-14,82,73,63,62,58,56,88,61,41,30.09,29.93,9,2,14,0.00
2013-6-15,85,75,64,64,60,57,82,61,42,30.18,30.08,10,3,16,0.00
2013-6-16,85,76,68,69,64,61,97,66,51,30.16,30.03,16,6,25,0.83
2013-6-17,82,73,68,72,69,67,98,87,65,30.08,29.96,10,4,13,0.10
2013-6-18,75,71,68,70,67,63,97,86,71,30.01,29.88,12,4,15,1.42
2013-6-19,85,74,63,67,64,62,97,74,48,30.12,29.99,9,2,14,0.00
2013-6-20,87,76,66,69,65,62,94,71,46,30.23,30.11,11,2,15,0.00
2013-6-21,86,76,68,68,66,64,89,74,52,30.29,30.19,9,2,16,0.00
2013-6-22,88,77,64,69,65,62,95,70,47,30.28,30.12,10,2,13,0.00
2013-6-23,90,78,67,68,65,63,91,66,44,30.25,30.13,9,2,18,0.00
2013-6-24,87,77,68,71,67,65,90,72,52,30.25,30.11,8,3,14,0.00
2013-6-25,87,76,71,72,70,68,94,81,56,30.20,30.06,11,5,17,0.00
2013-6-26,85,76,68,74,71,65,93,85,69,30.09,29.91,11,5,29,0.24
2013-6-27,86,75,65,76,70,64,98,87,69,29.97,29.82,15,6,37,1.59
2013-6-28,84,76,70,74,70,63,98,81,51,29.89,29.69,12,4,18,0.00
2013-6-29,85,75,65,69,63,57,98,70,42,29.74,29.69,12,4,22,0.32
2013-6-30,88,77,69,66,63,55,82,62,36,29.82,29.72,10,3,15,0.00
2013-7-1,84,72,63,70,66,62,97,82,55,29.95,29.81,15,3,30,0.73
2013-7-2,82,72,67,71,68,66,97,85,63,30.11,29.95,7,2,12,0.22
2013-7-3,75,70,66,71,68,65,97,93,84,30.21,30.10,7,3,16,0.47
2013-7-4,78,70,65,73,68,64,98,93,80,30.22,30.14,12,3,15,0.42
2013-7-5,80,73,68,71,69,68,98,87,69,30.22,30.15,10,3,15,0.04
2013-7-6,84,72,67,73,69,66,98,92,66,30.21,30.13,7,3,19,1.65
2013-7-7,74,61,67,69,48,-100,100,84,81,30.23,30.14,8,-113,13,1.18
2013-7-8,88,76,67,72,68,66,99,81,50,30.27,30.15,4,1,9,0.00
2013-7-9,90,78,70,75,71,67,96,80,55,30.20,30.08,7,2,13,0.00
2013-7-10,87,76,71,77,72,66,93,86,68,30.13,29.96,16,3,25,0.04
2013-7-11,86,76,70,75,70,69,97,85,63,30.02,29.92,6,2,12,0.14
2013-7-12,83,75,68,70,66,60,92,75,48,30.03,29.95,10,3,12,0.00
2013-7-13,85,75,67,71,66,63,88,74,54,30.12,29.99,7,2,16,0.00
2013-7-14,87,77,70,74,68,65,87,74,61,30.26,30.11,12,3,21,0.00
2013-7-15,90,80,71,70,68,66,85,68,48,30.34,30.25,10,2,12,0.00
2013-7-16,93,83,72,73,70,67,87,65,49,30.38,30.27,5,2,11,0.00
2013-7-17,94,81,71,75,70,65,95,71,41,30.33,30.17,13,2,33,0.05
2013-7-18,93,74,-90,74,61,-100,100,73,51,30.27,30.09,8,-50,16,0.00
2013-7-19,90,81,71,74,72,68,95,74,51,30.16,30.00,9,2,14,0.00
2013-7-20,90,80,70,74,71,66,92,75,49,30.06,29.93,11,4,31,0.19
2013-7-21,84,75,71,76,71,68,96,88,72,30.05,29.97,12,4,15,0.13
2013-7-22,81,73,71,73,71,69,97,90,73,30.04,29.88,16,5,24,0.31
2013-7-23,83,75,69,75,70,67,95,86,73,29.98,29.86,16,5,23,0.07
2013-7-24,83,76,71,74,71,66,97,84,65,29.93,29.85,8,3,14,0.00
2013-7-25,86,75,66,67,64,61,94,71,49,30.10,29.93,8,2,10,0.00
2013-7-26,86,74,62,71,65,60,92,75,57,30.12,30.03,17,3,30,0.04
2013-7-27,80,73,68,73,68,62,97,84,66,30.05,29.93,8,3,16,0.31
2013-7-28,81,74,68,69,63,55,95,72,46,30.12,29.95,14,3,22,0.00
2013-7-29,84,71,61,59,56,50,83,60,33,30.25,30.11,7,2,9,0.00
2013-7-30,80,71,63,66,62,57,86,73,54,30.29,30.20,7,2,8,0.00
2013-7-31,76,69,64,70,63,-100,100,86,74,30.20,30.03,15,-19,20,0.02
2013-8-1,86,72,-90,71,61,-100,100,76,55,30.06,29.99,8,-26,11,0.00
2013-8-2,88,76,67,67,64,58,92,68,43,30.10,30.03,7,2,9,0.00
2013-8-3,84,76,68,72,68,63,88,75,57,30.08,30.02,12,4,17,0.00
2013-8-4,85,76,70,71,66,58,97,72,41,30.12,30.05,10,3,12,0.00
2013-8-5,87,74,64,65,61,52,86,65,35,30.13,30.02,9,2,13,0.00
2013-8-6,86,77,70,72,68,62,84,72,53,30.06,30.00,9,3,12,0.00
2013-8-7,82,76,71,74,72,70,97,87,75,30.08,29.98,12,4,19,0.41
2013-8-8,81,75,70,75,71,68,95,88,77,30.10,30.01,11,3,14,0.02
2013-8-9,88,77,70,76,72,69,98,86,63,30.12,30.03,10,4,23,0.03
2013-8-10,89,75,70,76,72,70,98,91,65,30.17,30.10,11,4,17,0.98
2013-8-11,86,74,70,75,71,69,99,92,67,30.20,30.11,8,3,23,0.15
2013-8-12,84,75,70,76,72,69,99,90,73,30.16,30.02,10,3,15,0.01
2013-8-13,83,76,71,75,71,67,97,85,65,30.02,29.92,17,5,18,0.26
2013-8-14,79,71,64,67,61,56,90,72,50,30.12,29.98,8,3,13,0.00
2013-8-15,83,71,60,66,60,54,82,69,52,30.15,30.06,7,2,12,0.00
2013-8-16,83,73,65,68,63,60,90,73,53,30.15,30.08,8,2,12,0.00
2013-8-17,74,69,65,67,63,59,97,82,65,30.20,30.13,8,2,11,0.36
2013-8-18,78,70,65,70,66,65,98,90,66,30.25,30.16,14,2,16,0.21
2013-8-19,81,72,67,72,69,67,98,89,69,30.21,30.12,6,2,10,0.04
2013-8-20,84,75,68,74,69,67,97,84,57,30.23,30.14,12,2,15,0.18
2013-8-21,82,74,69,73,70,68,98,89,75,30.26,30.16,9,3,16,0.22
2013-8-22,89,78,69,73,70,68,98,79,51,30.23,30.08,4,1,7,0.00
2013-8-23,88,75,70,73,70,65,98,86,56,30.14,30.05,6,2,13,0.10
2013-8-24,87,75,66,71,65,56,98,74,37,30.28,30.14,9,3,14,0.01
2013-8-25,85,75,65,65,61,56,83,63,46,30.41,30.29,5,1,10,0.00
2013-8-26,89,74,63,66,63,58,93,69,44,30.37,30.19,8,3,10,0.00
2013-8-27,86,76,67,70,68,65,96,76,58,30.21,30.09,5,2,10,0.00
2013-8-28,90,79,70,73,70,68,97,77,53,30.11,30.02,6,2,10,0.00
2013-8-29,90,80,73,75,72,71,95,76,56,30.05,29.97,7,2,9,0.00
2013-8-30,89,80,70,74,71,68,93,76,50,30.05,29.94,10,3,14,0.00
2013-8-31,90,79,69,76,72,67,96,80,53,30.00,29.88,15,5,20,0.23
2013-9-1,85,74,68,74,70,67,97,86,66,29.94,29.86,15,4,30,0.01
2013-9-2,86,75,69,73,71,68,98,87,67,30.00,29.89,11,4,20,0.00
2013-9-3,86,75,65,72,67,63,98,79,53,30.07,29.91,10,3,16,0.64
2013-9-4,86,74,64,66,63,61,91,71,50,30.18,30.07,8,3,9,0.00
2013-9-5,85,73,63,65,62,53,91,69,34,30.22,30.16,7,2,8,0.00
2013-9-6,87,76,66,66,63,57,91,67,38,30.23,30.12,8,3,12,0.00
2013-9-7,86,76,64,69,65,62,93,72,50,30.17,30.04,10,2,12,0.00
2013-9-8,89,78,68,71,68,66,93,74,51,30.07,29.99,7,2,11,0.00
2013-9-9,89,78,68,71,68,64,95,72,44,30.15,30.05,11,3,15,0.00
2013-9-10,91,80,70,71,68,64,91,70,44,30.27,30.15,12,2,17,0.00
2013-9-11,88,78,69,72,69,67,94,75,51,30.27,30.14,6,2,11,0.00
2013-9-12,86,74,66,73,69,64,97,85,63,30.14,29.95,16,3,22,0.44
2013-9-13,77,68,60,66,59,50,99,74,41,30.05,29.94,9,3,17,0.01
2013-9-14,77,64,53,54,51,49,88,66,44,30.15,30.04,10,3,18,0.00
2013-9-15,81,69,57,64,57,50,84,67,48,30.24,30.15,10,2,14,0.00
2013-9-16,83,71,62,66,62,58,95,75,46,30.23,30.16,8,2,11,0.00
2013-9-17,80,70,62,66,62,58,89,76,58,30.28,30.19,5,2,9,0.00
2013-9-18,72,67,63,65,61,58,90,83,66,30.28,30.19,6,2,10,0.00
2013-9-19,83,71,61,67,64,61,97,79,57,30.25,30.11,7,2,11,0.00
2013-9-20,84,75,64,67,65,62,96,73,51,30.13,29.93,12,3,15,0.00
2013-9-21,73,67,61,66,64,58,97,90,77,29.93,29.79,13,2,21,2.41
2013-9-22,75,64,55,58,55,52,94,73,46,30.00,29.88,8,3,12,0.01
2013-9-23,79,67,54,60,56,51,92,70,45,30.10,30.00,10,2,11,0.00
2013-9-24,80,69,60,65,62,58,94,78,54,30.11,29.95,11,2,14,0.04
2013-9-25,69,66,65,66,64,63,97,94,86,29.95,29.89,4,1,5,0.31
2013-9-26,80,68,61,65,62,57,99,81,48,30.09,29.94,6,2,11,0.01
2013-9-27,81,69,58,62,57,51,95,68,42,30.22,30.09,10,2,13,0.00
2013-9-28,79,68,59,61,58,56,93,73,52,30.29,30.15,6,2,14,0.00
2013-9-29,72,65,60,60,59,58,93,80,63,30.20,30.08,10,2,13,0.00
2013-9-30,76,67,56,62,59,56,98,77,52,30.16,30.06,7,1,12,0.00
2013-10-1,79,69,59,63,61,58,96,77,53,30.22,30.11,7,2,11,0.00
2013-10-2,82,71,61,67,63,59,95,78,55,30.24,30.13,6,2,8,0.00
2013-10-3,83,72,64,67,65,62,96,79,54,30.19,30.10,9,2,11,0.00
2013-10-4,85,74,64,66,64,62,96,72,49,30.22,30.13,7,2,10,0.00
2013-10-5,85,74,64,68,65,62,95,74,52,30.19,30.05,7,2,12,0.00
2013-10-6,82,73,66,66,63,61,92,72,50,30.05,29.84,19,6,24,0.01
2013-10-7,69,60,53,62,51,46,97,75,47,30.15,29.90,15,2,25,0.24
2013-10-8,73,61,51,52,48,44,80,63,47,30.23,30.15,9,4,18,0.00
2013-10-9,78,65,54,57,53,49,84,66,48,30.28,30.18,6,2,11,0.00
2013-10-10,76,65,55,56,53,49,93,67,42,30.23,30.11,5,2,12,0.00
2013-10-11,79,67,55,58,55,50,90,67,46,30.16,30.05,7,2,8,0.00
2013-10-12,80,68,57,60,56,55,94,68,45,30.17,30.07,5,2,9,0.00
2013-10-13,76,68,61,62,60,56,90,76,59,30.27,30.17,8,1,11,0.00
2013-10-14,79,69,62,63,60,58,89,74,52,30.30,30.16,9,2,12,0.00
2013-10-15,77,67,60,63,61,58,92,82,60,30.19,30.08,7,2,12,0.00
2013-10-16,67,63,59,61,58,56,92,84,75,30.12,30.02,8,3,14,0.01
2013-10-17,66,62,56,65,59,50,98,91,80,30.08,29.92,12,2,16,0.49
2013-10-18,66,56,47,50,48,45,96,76,51,30.16,30.05,5,2,8,0.00
2013-10-19,64,54,47,52,49,43,92,82,66,30.12,29.98,16,3,22,0.00
2013-10-20,65,52,40,43,40,36,93,67,36,30.20,30.11,6,1,9,0.00
2013-10-21,67,56,44,49,44,40,93,67,43,30.21,30.07,11,2,17,0.00
2013-10-22,64,57,50,53,49,47,91,76,63,30.08,29.93,11,3,16,0.00
2013-10-23,51,47,40,49,39,31,92,76,59,30.20,29.87,22,6,28,0.00
2013-10-24,51,44,38,39,36,33,93,75,56,30.36,30.18,11,3,19,0.00
2013-10-25,52,41,33,31,27,25,80,60,36,30.56,30.37,6,1,11,0.00
2013-10-26,55,45,32,35,30,26,82,59,34,30.45,30.21,21,4,25,0.00
2013-10-27,60,55,50,51,41,33,81,61,49,30.25,30.16,11,4,15,0.00
2013-10-28,65,58,53,56,52,50,95,82,66,30.35,30.20,14,4,20,0.00
2013-10-29,70,61,53,57,54,51,96,77,51,30.41,30.29,6,2,9,0.00
2013-10-30,76,66,60,59,56,53,88,71,51,30.33,30.19,13,6,18,0.00
2013-10-31,72,67,61,62,57,55,84,72,62,30.19,29.70,30,8,42,0.00
2013-11-1,71,64,58,63,54,43,96,72,48,29.87,29.71,32,7,42,0.58
2013-11-2,61,54,48,47,42,36,91,67,43,30.17,29.86,9,3,17,0.05
2013-11-3,59,50,43,42,38,35,88,67,43,30.41,30.16,8,2,13,0.00
2013-11-4,64,53,41,41,37,34,77,56,39,30.51,30.40,6,2,11,0.00
2013-11-5,67,56,46,41,37,34,69,51,37,30.53,30.39,10,3,15,0.00
2013-11-6,74,61,51,55,46,30,73,58,42,30.40,30.12,13,4,20,0.00
2013-11-7,63,51,42,57,43,30,97,74,46,30.37,30.08,12,3,20,0.40
2013-11-8,56,46,38,30,26,22,67,46,28,30.50,30.37,7,2,11,0.00
2013-11-9,55,46,35,35,31,24,76,56,43,30.42,30.31,19,6,24,0.00
2013-11-10,66,54,44,42,34,23,76,49,28,30.41,30.31,10,3,16,0.00
2013-11-11,63,52,41,32,28,25,55,40,26,30.41,30.24,12,3,12,0.00
2013-11-12,54,40,28,41,27,15,82,61,43,30.67,30.21,15,5,22,0.00
2013-11-13,44,33,24,20,18,16,76,54,36,30.79,30.60,9,2,10,0.00
2013-11-14,57,41,27,28,22,18,81,49,23,30.61,30.39,7,2,12,0.00
2013-11-15,48,42,36,43,32,20,96,69,45,30.40,30.27,7,2,8,0.07
2013-11-16,65,53,44,54,49,43,97,88,69,30.33,30.18,12,2,14,0.00
2013-11-17,66,58,51,64,56,50,98,94,79,30.18,29.89,14,3,31,0.92
2013-11-18,64,57,47,59,42,30,99,62,29,30.23,29.94,9,3,21,0.01
2013-11-19,52,45,38,30,27,25,66,52,36,30.33,30.23,8,3,13,0.00
2013-11-20,59,47,37,33,29,28,73,52,33,30.42,30.28,9,3,12,0.22
2013-11-21,62,52,42,46,39,29,73,62,53,30.47,30.35,7,3,12,0.00
2013-11-22,56,43,50,56,21,-100,98,71,72,30.39,30.26,10,-187,18,0.05
2013-11-23,51,43,30,49,35,18,93,75,54,30.51,30.29,12,3,20,0.00
2013-11-24,36,28,22,18,11,5,69,50,31,30.70,30.50,13,3,19,0.00
2013-11-25,38,31,26,30,16,8,92,54,42,30.61,30.32,4,1,10,0.00
2013-11-26,38,18,32,37,-30,-100,98,50,93,30.32,29.86,13,-477,21,0.40
2013-11-27,33,18,27,30,-26,-100,91,47,73,30.42,29.93,10,-403,18,0.00
2013-11-28,42,32,22,24,21,17,83,65,43,30.61,30.42,6,2,8,0.01
2013-11-29,32,10,29,29,-58,-100,91,28,72,30.70,30.61,5,-665,8,0.00
2013-11-30,-200,0,200,-100,-100,-100,0,0,100,30.64,30.35,0,-999,0,0.00
2013-12-1,-200,0,200,-100,-100,-100,0,0,100,30.34,30.06,0,-999,0,0.00
2013-12-2,-200,0,200,-100,-100,-100,0,0,100,30.05,29.87,0,-999,0,0.00
2013-12-3,-200,0,200,-100,-100,-100,0,0,100,29.94,29.89,0,-999,0,0.00
2013-12-4,76,14,69,57,-71,-100,67,9,40,30.04,29.91,9,-808,13,0.02
2013-12-5,-200,0,200,-100,-100,-100,0,0,100,30.05,29.95,0,-999,0,0.00
2013-12-6,-200,0,200,-100,-100,-100,0,0,100,30.10,29.96,0,-999,0,0.00
2013-12-18,74,42,36,36,19,-100,58,41,25,30.41,30.35,8,-13,12,0.10
2013-12-19,58,43,30,27,24,18,83,50,29,30.42,30.25,10,4,12,0.00
2013-12-20,57,49,37,43,33,25,70,54,42,30.27,30.15,8,3,12,0.00
2013-12-21,72,62,52,63,51,38,88,67,56,30.14,29.86,36,6,45,0.02
2013-12-22,71,58,54,63,56,53,98,92,66,30.12,29.86,23,8,48,1.53
2013-12-23,54,42,32,53,38,26,97,87,75,30.43,30.08,11,4,19,0.07
2013-12-24,34,30,23,26,20,13,80,66,46,30.59,30.43,8,2,14,0.00
2013-12-25,43,31,22,25,19,14,72,62,46,30.59,30.43,8,2,11,0.00
2013-12-26,49,38,30,29,24,20,82,57,41,30.51,30.42,13,4,19,0.00
2013-12-27,52,40,30,28,24,21,81,54,37,30.59,30.46,5,2,9,0.00
2013-12-28,44,37,30,39,30,23,97,75,53,30.51,30.08,9,2,9,0.37
2013-12-29,45,42,40,43,41,37,98,94,78,30.14,29.95,12,4,16,0.99
2013-12-30,43,37,34,41,33,29,95,85,74,30.33,30.13,11,2,16,0.00
2013-12-31,43,34,28,30,25,23,95,72,49,30.57,30.32,10,3,16,0.00
2014-1-1,48,37,27,29,26,23,91,67,44,30.46,30.20,5,2,10,0.00
2014-1-2,40,32,20,39,29,14,98,87,67,30.27,29.86,18,3,27,0.39